createdAt,value
2023-03-29T00:02:06.090Z,99103.80
2023-03-29T00:04:33.760Z,99104.42
2023-03-29T00:07:01.327Z,99105.39
2023-03-29T00:09:28.903Z,99099.95
2023-03-29T00:11:56.581Z,99103.56
2023-03-29T00:14:24.146Z,99102.77
2023-03-29T00:16:51.738Z,99105.12
2023-03-29T00:19:19.323Z,99099.45
2023-03-29T00:21:46.944Z,99097.77
2023-03-29T00:24:14.514Z,99095.77
2023-03-29T00:26:42.119Z,99097.58
2023-03-29T00:29:09.807Z,99097.70
2023-03-29T00:31:37.531Z,99098.22
2023-03-29T00:34:05.111Z,99105.10
2023-03-29T00:36:32.657Z,99102.74
2023-03-29T00:39:00.256Z,99098.70
2023-03-29T00:41:27.987Z,99100.45
2023-03-29T00:44:03.725Z,99099.36
2023-03-29T00:46:32.027Z,99095.30
2023-03-29T00:49:09.394Z,99093.52
2023-03-29T00:51:40.765Z,99091.56
2023-03-29T00:54:13.517Z,99097.04
2023-03-29T00:56:44.695Z,99097.48
2023-03-29T00:59:28.143Z,99095.23
2023-03-29T01:02:06.747Z,99087.15
2023-03-29T01:04:50.512Z,99085.52
2023-03-29T01:07:25.862Z,99085.02
2023-03-29T01:10:00.919Z,99085.25
2023-03-29T01:12:35.205Z,99084.29
2023-03-29T01:15:09.048Z,99081.06
2023-03-29T01:17:37.757Z,99078.33
2023-03-29T01:20:15.056Z,99072.29
2023-03-29T01:23:01.169Z,99071.93
2023-03-29T01:25:51.842Z,99075.20
2023-03-29T01:28:24.426Z,99075.77
2023-03-29T01:30:56.163Z,99074.69
2023-03-29T01:33:42.797Z,99073.03
2023-03-29T01:36:24.017Z,99075.60
2023-03-29T01:38:58.870Z,99071.14
2023-03-29T01:41:43.315Z,99068.28
2023-03-29T01:44:19.371Z,99060.52
2023-03-29T01:46:52.338Z,99061.36
2023-03-29T01:49:37.071Z,99060.84
2023-03-29T01:52:44.655Z,99060.42
2023-03-29T01:55:16.937Z,99058.69
2023-03-29T01:57:46.657Z,99059.08
2023-03-29T02:00:17.213Z,99059.31
2023-03-29T02:02:46.942Z,99061.79
2023-03-29T02:05:16.180Z,99060.48
2023-03-29T02:07:46.096Z,99060.43
2023-03-29T02:10:15.695Z,99059.75
2023-03-29T02:12:43.517Z,99057.22
2023-03-29T02:15:14.406Z,99057.91
2023-03-29T02:17:42.370Z,99055.83
2023-03-29T02:20:21.426Z,99052.77
2023-03-29T02:23:03.915Z,99054.16
2023-03-29T02:25:31.946Z,99052.41
2023-03-29T02:28:00.536Z,99058.63
2023-03-29T02:30:34.728Z,99052.52
2023-03-29T02:33:12.478Z,99056.36
2023-03-29T02:36:12.182Z,99055.36
2023-03-29T02:38:40.709Z,99057.06
2023-03-29T02:41:09.714Z,99053.48
2023-03-29T02:43:39.684Z,99055.56
2023-03-29T02:46:07.875Z,99060.55
2023-03-29T02:48:37.600Z,99059.80
2023-03-29T02:51:13.660Z,99060.73
2023-03-29T02:53:48.826Z,99060.67
2023-03-29T02:56:16.427Z,99062.23
2023-03-29T02:58:44.012Z,99067.73
2023-03-29T03:01:11.930Z,99067.98
2023-03-29T03:03:39.604Z,99069.21
2023-03-29T03:06:07.352Z,99063.80
2023-03-29T03:08:34.898Z,99062.75
2023-03-29T03:11:02.850Z,99064.08
2023-03-29T03:13:30.764Z,99064.95
2023-03-29T03:15:58.401Z,99063.59
2023-03-29T03:18:25.998Z,99064.91
2023-03-29T03:21:00.633Z,99068.69
2023-03-29T03:23:28.414Z,99066.70
2023-03-29T03:25:56.859Z,99067.88
2023-03-29T03:28:24.602Z,99064.95
2023-03-29T03:30:52.157Z,99065.45
2023-03-29T03:33:20.031Z,99067.43
2023-03-29T03:35:47.646Z,99070.33
2023-03-29T03:38:15.455Z,99072.15
2023-03-29T03:40:43.086Z,99068.24
2023-03-29T03:43:10.697Z,99067.29
2023-03-29T03:45:38.329Z,99065.16
2023-03-29T03:48:06.288Z,99071.13
2023-03-29T03:50:33.975Z,99071.07
2023-03-29T03:53:01.569Z,99069.06
2023-03-29T03:55:29.159Z,99066.08
2023-03-29T03:57:56.900Z,99065.86
2023-03-29T04:00:24.702Z,99064.98
2023-03-29T04:02:53.058Z,99068.70
2023-03-29T04:05:20.777Z,99068.17
2023-03-29T04:07:48.340Z,99071.09
2023-03-29T04:10:15.927Z,99069.90
2023-03-29T04:12:43.650Z,99068.88
2023-03-29T04:15:12.389Z,99069.08
2023-03-29T04:17:40.160Z,99066.92
2023-03-29T04:20:08.177Z,99063.98
2023-03-29T04:22:35.804Z,99068.20
2023-03-29T04:25:03.547Z,99064.98
2023-03-29T04:27:31.263Z,99063.38
2023-03-29T04:29:58.863Z,99064.53
2023-03-29T04:32:26.406Z,99060.55
2023-03-29T04:34:53.992Z,99062.90
2023-03-29T04:37:21.580Z,99059.50
2023-03-29T04:39:49.740Z,99058.45
2023-03-29T04:42:17.302Z,99061.27
2023-03-29T04:44:44.897Z,99060.33
2023-03-29T04:47:12.502Z,99061.73
2023-03-29T04:49:40.560Z,99062.32
2023-03-29T04:52:08.295Z,99064.02
2023-03-29T04:54:35.865Z,99060.19
2023-03-29T04:57:05.297Z,99065.17
2023-03-29T04:59:32.900Z,99068.49
2023-03-29T05:02:00.840Z,99065.06
2023-03-29T05:04:29.201Z,99063.25
2023-03-29T05:06:57.391Z,99063.63
2023-03-29T05:09:25.273Z,99065.66
2023-03-29T05:11:52.879Z,99068.34
2023-03-29T05:14:20.509Z,99067.32
2023-03-29T05:16:48.068Z,99066.15
2023-03-29T05:19:15.870Z,99061.55
2023-03-29T05:21:45.107Z,99062.27
2023-03-29T05:24:13.273Z,99065.54
2023-03-29T05:26:40.855Z,99066.77
2023-03-29T05:29:08.479Z,99066.20
2023-03-29T05:31:36.497Z,99067.41
2023-03-29T05:34:04.525Z,99067.11
2023-03-29T05:36:32.295Z,99065.33
2023-03-29T05:38:59.919Z,99069.01
2023-03-29T05:41:27.873Z,99071.25
2023-03-29T05:43:55.670Z,99067.58
2023-03-29T05:46:23.663Z,99068.95
2023-03-29T05:48:51.295Z,99068.77
2023-03-29T05:51:19.318Z,99068.93
2023-03-29T05:53:46.973Z,99063.88
2023-03-29T05:56:14.567Z,99062.50
2023-03-29T05:58:42.700Z,99065.28
2023-03-29T06:01:13.692Z,99064.55
2023-03-29T06:03:41.486Z,99066.02
2023-03-29T06:06:09.483Z,99067.34
2023-03-29T06:08:37.047Z,99069.45
2023-03-29T06:11:06.595Z,99068.37
2023-03-29T06:13:34.646Z,99070.79
2023-03-29T06:16:02.224Z,99072.52
2023-03-29T06:18:30.345Z,99075.27
2023-03-29T06:20:57.997Z,99079.81
2023-03-29T06:23:25.595Z,99083.19
2023-03-29T06:25:53.227Z,99082.70
2023-03-29T06:28:21.677Z,99082.52
2023-03-29T06:30:49.668Z,99083.70
2023-03-29T06:33:17.410Z,99086.70
2023-03-29T06:35:48.006Z,99087.20
2023-03-29T06:38:16.080Z,99088.55
2023-03-29T06:40:43.650Z,99091.88
2023-03-29T06:43:11.300Z,99090.19
2023-03-29T06:45:39.393Z,99091.36
2023-03-29T06:48:07.884Z,99095.23
2023-03-29T06:50:36.132Z,99093.39
2023-03-29T06:53:04.156Z,99091.69
2023-03-29T06:55:31.767Z,99089.45
2023-03-29T06:58:01.640Z,99094.91
2023-03-29T07:00:30.418Z,99091.06
2023-03-29T07:02:58.698Z,99095.09
2023-03-29T07:05:27.760Z,99093.73
2023-03-29T07:07:55.911Z,99090.70
2023-03-29T07:10:32.959Z,99091.19
2023-03-29T07:13:02.097Z,99089.67
2023-03-29T07:15:29.808Z,99082.46
2023-03-29T07:17:58.101Z,99083.78
2023-03-29T07:20:26.117Z,99082.38
2023-03-29T07:22:53.773Z,99079.83
2023-03-29T07:25:23.246Z,99085.00
2023-03-29T07:27:51.281Z,99078.91
2023-03-29T07:30:21.650Z,99076.48
2023-03-29T07:32:50.882Z,99077.75
2023-03-29T07:35:18.774Z,99074.83
2023-03-29T07:37:46.595Z,99073.94
2023-03-29T07:40:16.632Z,99077.56
2023-03-29T07:42:48.935Z,99076.81
2023-03-29T07:45:17.054Z,99078.73
2023-03-29T07:47:44.670Z,99076.30
2023-03-29T07:50:12.332Z,99075.17
2023-03-29T07:52:40.614Z,99075.71
2023-03-29T07:55:09.821Z,99075.45
2023-03-29T07:57:37.508Z,99079.54
2023-03-29T08:00:08.658Z,99075.89
2023-03-29T08:02:36.471Z,99074.58
2023-03-29T08:05:04.401Z,99076.13
2023-03-29T08:07:32.039Z,99075.16
2023-03-29T08:09:59.630Z,99073.52
2023-03-29T08:12:27.246Z,99076.77
2023-03-29T08:14:54.806Z,99070.72
2023-03-29T08:17:22.436Z,99071.59
2023-03-29T08:19:50.926Z,99071.10
2023-03-29T08:22:19.081Z,99066.23
2023-03-29T08:24:46.650Z,99065.23
2023-03-29T08:27:14.275Z,99062.02
2023-03-29T08:29:41.869Z,99064.05
2023-03-29T08:32:09.450Z,99064.90
2023-03-29T08:34:37.036Z,99065.21
2023-03-29T08:37:04.914Z,99062.51
2023-03-29T08:39:32.539Z,99055.89
2023-03-29T08:42:17.140Z,99052.29
2023-03-29T08:44:50.786Z,99046.13
2023-03-29T08:47:50.080Z,99041.64
2023-03-29T08:50:19.208Z,99038.98
2023-03-29T08:52:52.421Z,99040.39
2023-03-29T08:55:42.525Z,99042.70
2023-03-29T08:58:18.272Z,99040.91
2023-03-29T09:00:58.300Z,99041.72
2023-03-29T09:03:34.512Z,99035.95
2023-03-29T09:06:08.208Z,99035.77
2023-03-29T09:08:39.688Z,99032.02
2023-03-29T09:11:25.946Z,99024.89
2023-03-29T09:14:01.881Z,99028.95
2023-03-29T09:16:50.866Z,99028.37
2023-03-29T09:19:42.520Z,99025.96
2023-03-29T09:22:43.840Z,99021.81
2023-03-29T09:25:50.812Z,99019.31
2023-03-29T09:28:37.909Z,99013.20
2023-03-29T09:31:22.622Z,99013.65
2023-03-29T09:34:04.683Z,99011.19
2023-03-29T09:37:02.892Z,99005.84
2023-03-29T09:39:30.585Z,99007.20
2023-03-29T09:42:02.662Z,99003.85
2023-03-29T09:44:37.565Z,99000.91
2023-03-29T09:47:17.133Z,99007.58
2023-03-29T09:49:49.212Z,98999.90
2023-03-29T09:52:18.055Z,99003.60
2023-03-29T09:54:45.772Z,98999.23
2023-03-29T09:57:16.374Z,98995.58
2023-03-29T09:59:46.252Z,99000.54
2023-03-29T10:02:14.255Z,98995.20
2023-03-29T10:04:42.226Z,98996.67
2023-03-29T10:07:17.668Z,98994.81
2023-03-29T10:09:46.705Z,98991.76
2023-03-29T10:12:15.904Z,98991.27
2023-03-29T10:14:48.115Z,98986.99
2023-03-29T10:17:20.589Z,98987.40
2023-03-29T10:19:52.670Z,98983.34
2023-03-29T10:22:25.379Z,98980.37
2023-03-29T10:24:54.808Z,98974.99
2023-03-29T10:27:26.549Z,98978.31
2023-03-29T10:29:55.769Z,98978.54
2023-03-29T10:32:33.186Z,98977.27
2023-03-29T10:35:10.101Z,98972.55
2023-03-29T10:37:48.751Z,98970.76
2023-03-29T10:40:22.238Z,98975.14
2023-03-29T10:42:51.208Z,98972.02
2023-03-29T10:45:24.026Z,98970.98
2023-03-29T10:47:51.590Z,98969.98
2023-03-29T10:50:19.265Z,98966.48
2023-03-29T10:52:46.893Z,98965.83
2023-03-29T10:55:14.596Z,98968.67
2023-03-29T10:57:44.792Z,98966.61
2023-03-29T11:00:57.014Z,98963.95
2023-03-29T11:03:42.715Z,98956.77
2023-03-29T11:06:28.896Z,98955.08
2023-03-29T11:08:59.300Z,98951.34
2023-03-29T11:11:48.893Z,98944.36
2023-03-29T11:14:19.482Z,98939.55
2023-03-29T11:17:05.105Z,98939.94
2023-03-29T11:19:53.789Z,98930.54
2023-03-29T11:23:03.302Z,98921.51
2023-03-29T11:25:59.486Z,98922.55
2023-03-29T11:28:26.990Z,98916.49
2023-03-29T11:31:05.308Z,98912.90
2023-03-29T11:33:47.597Z,98911.24
2023-03-29T11:36:28.259Z,98912.02
2023-03-29T11:39:11.748Z,98911.27
2023-03-29T11:41:44.442Z,98909.02
2023-03-29T11:44:24.290Z,98903.84
2023-03-29T11:47:00.221Z,98899.27
2023-03-29T11:49:42.996Z,98893.86
2023-03-29T11:52:17.743Z,98889.98
2023-03-29T11:55:01.137Z,98881.41
2023-03-29T11:57:40.785Z,98880.18
2023-03-29T12:00:27.486Z,98877.73
2023-03-29T12:03:12.424Z,98873.17
2023-03-29T12:05:48.267Z,98870.23
2023-03-29T12:08:20.656Z,98866.96
2023-03-29T12:10:55.060Z,98864.36
2023-03-29T12:13:29.057Z,98857.20
2023-03-29T12:16:08.795Z,98859.31
2023-03-29T12:18:42.025Z,98851.03
2023-03-29T12:21:14.703Z,98850.87
2023-03-29T12:23:44.478Z,98851.96
2023-03-29T12:26:18.076Z,98856.66
2023-03-29T12:29:28.598Z,98852.08
2023-03-29T12:32:33.771Z,98842.13
2023-03-29T12:35:28.505Z,98847.77
2023-03-29T12:38:22.563Z,98843.29
2023-03-29T12:41:01.743Z,98839.11
2023-03-29T12:43:37.569Z,98833.93
2023-03-29T12:46:11.045Z,98835.62
2023-03-29T12:48:41.078Z,98830.11
2023-03-29T12:51:13.760Z,98829.42
2023-03-29T12:53:47.428Z,98828.48
2023-03-29T12:56:17.823Z,98826.51
2023-03-29T12:58:45.339Z,98817.52
2023-03-29T13:01:24.657Z,98818.02
2023-03-29T13:04:20.004Z,98816.03
2023-03-29T13:06:47.534Z,98814.59
2023-03-29T13:09:46.774Z,98809.95
2023-03-29T13:12:41.070Z,98816.63
2023-03-29T13:15:14.573Z,98809.91
2023-03-29T13:18:10.894Z,98811.11
2023-03-29T13:20:47.318Z,98806.51
2023-03-29T13:23:29.887Z,98802.42
2023-03-29T13:26:03.772Z,98799.63
2023-03-29T13:28:58.900Z,98798.80
2023-03-29T13:31:39.202Z,98794.61
2023-03-29T13:34:27.208Z,98787.42
2023-03-29T13:37:33.376Z,98785.77
2023-03-29T13:40:00.985Z,98786.92
2023-03-29T13:42:34.400Z,98781.76
2023-03-29T13:45:14.261Z,98782.17
2023-03-29T13:47:58.351Z,98775.14
2023-03-29T13:50:51.453Z,98766.44
2023-03-29T13:53:24.066Z,98763.36
2023-03-29T13:55:53.898Z,98762.83
2023-03-29T13:58:32.528Z,98762.41
2023-03-29T14:01:13.349Z,98762.87
2023-03-29T14:03:44.920Z,98758.35
2023-03-29T14:06:16.954Z,98758.36
2023-03-29T14:08:45.266Z,98756.65
2023-03-29T14:11:22.907Z,98755.17
2023-03-29T14:13:55.282Z,98753.39
2023-03-29T14:16:26.933Z,98752.20
2023-03-29T14:18:59.022Z,98753.34
2023-03-29T14:21:26.768Z,98752.52
2023-03-29T14:23:57.931Z,98754.39
2023-03-29T14:26:32.178Z,98752.20
2023-03-29T14:29:01.434Z,98750.16
2023-03-29T14:31:34.820Z,98752.23
2023-03-29T14:34:05.663Z,98745.99
2023-03-29T14:36:34.202Z,98745.56
2023-03-29T14:39:05.369Z,98738.08
2023-03-29T14:41:36.057Z,98740.71
2023-03-29T14:44:06.467Z,98739.38
2023-03-29T14:46:35.051Z,98740.23
2023-03-29T14:49:03.712Z,98740.23
2023-03-29T14:51:31.403Z,98738.36
2023-03-29T14:54:01.712Z,98739.27
2023-03-29T14:56:30.894Z,98737.98
2023-03-29T14:59:00.050Z,98735.84
2023-03-29T15:01:27.723Z,98728.84
2023-03-29T15:04:01.760Z,98726.02
2023-03-29T15:06:30.745Z,98712.97
2023-03-29T15:09:05.225Z,98716.71
2023-03-29T15:11:34.526Z,98715.16
2023-03-29T15:14:04.974Z,98713.96
2023-03-29T15:16:33.412Z,98716.40
2023-03-29T15:19:01.978Z,98708.83
2023-03-29T15:21:34.082Z,98706.38
2023-03-29T15:24:04.096Z,98708.55
2023-03-29T15:26:34.612Z,98711.13
2023-03-29T15:29:10.283Z,98705.92
2023-03-29T15:31:40.339Z,98701.88
2023-03-29T15:34:28.417Z,98695.19
2023-03-29T15:36:57.188Z,98696.34
2023-03-29T15:39:25.811Z,98695.44
2023-03-29T15:41:54.355Z,98697.69
2023-03-29T15:44:28.467Z,98693.08
2023-03-29T15:46:56.433Z,98692.77
2023-03-29T15:49:24.028Z,98691.30
2023-03-29T15:51:53.276Z,98696.21
2023-03-29T15:54:21.800Z,98691.14
2023-03-29T15:56:55.345Z,98689.92
2023-03-29T15:59:23.303Z,98683.21
2023-03-29T16:01:50.938Z,98678.13
2023-03-29T16:04:20.991Z,98677.06
2023-03-29T16:06:51.840Z,98682.21
2023-03-29T16:09:23.412Z,98682.98
2023-03-29T16:11:51.343Z,98679.31
2023-03-29T16:14:20.560Z,98679.17
2023-03-29T16:16:48.241Z,98678.85
2023-03-29T16:19:15.852Z,98679.04
2023-03-29T16:21:43.667Z,98670.43
2023-03-29T16:24:16.955Z,98671.39
2023-03-29T16:26:44.671Z,98670.19
2023-03-29T16:29:12.417Z,98663.88
2023-03-29T16:31:40.104Z,98661.13
2023-03-29T16:34:10.547Z,98658.64
2023-03-29T16:36:38.167Z,98656.02
2023-03-29T16:39:06.889Z,98654.02
2023-03-29T16:41:34.455Z,98650.86
2023-03-29T16:44:02.329Z,98653.35
2023-03-29T16:46:30.393Z,98655.66
2023-03-29T16:48:58.156Z,98656.54
2023-03-29T16:51:26.191Z,98657.16
2023-03-29T16:53:53.888Z,98657.26
2023-03-29T16:56:21.446Z,98655.71
2023-03-29T16:58:49.556Z,98651.89
2023-03-29T17:01:17.177Z,98649.14
2023-03-29T17:03:44.866Z,98652.65
2023-03-29T17:06:12.780Z,98651.71
2023-03-29T17:08:41.084Z,98656.83
2023-03-29T17:11:09.056Z,98659.45
2023-03-29T17:13:36.771Z,98660.04
2023-03-29T17:16:06.190Z,98661.47
2023-03-29T17:18:34.169Z,98657.23
2023-03-29T17:21:01.757Z,98654.23
2023-03-29T17:23:29.420Z,98658.31
2023-03-29T17:25:57.309Z,98663.58
2023-03-29T17:28:25.020Z,98664.44
2023-03-29T17:30:52.862Z,98662.95
2023-03-29T17:33:21.806Z,98666.35
2023-03-29T17:35:50.312Z,98668.38
2023-03-29T17:38:17.923Z,98675.29
2023-03-29T17:40:52.349Z,98675.95
2023-03-29T17:43:20.373Z,98679.49
2023-03-29T17:45:52.193Z,98682.52
2023-03-29T17:48:20.549Z,98684.73
2023-03-29T17:50:48.281Z,98687.47
2023-03-29T17:53:16.025Z,98693.61
2023-03-29T17:55:43.946Z,98692.61
2023-03-29T17:58:11.866Z,98690.55
2023-03-29T18:00:39.854Z,98689.16
2023-03-29T18:03:07.918Z,98685.34
2023-03-29T18:05:35.727Z,98685.27
2023-03-29T18:08:03.867Z,98687.63
2023-03-29T18:10:31.486Z,98689.46
2023-03-29T18:13:01.484Z,98691.95
2023-03-29T18:15:29.077Z,98696.15
2023-03-29T18:17:56.829Z,98697.31
2023-03-29T18:20:24.664Z,98699.70
2023-03-29T18:22:52.244Z,98705.81
2023-03-29T18:25:20.076Z,98709.02
2023-03-29T18:27:47.676Z,98710.66
2023-03-29T18:30:15.691Z,98713.83
2023-03-29T18:32:43.297Z,98714.77
2023-03-29T18:35:11.043Z,98713.83
2023-03-29T18:37:38.910Z,98711.52
2023-03-29T18:40:07.445Z,98704.50
2023-03-29T18:42:35.406Z,98703.52
2023-03-29T18:45:03.882Z,98697.82
2023-03-29T18:47:31.665Z,98695.34
2023-03-29T18:49:59.480Z,98688.98
2023-03-29T18:52:27.061Z,98686.06
2023-03-29T18:54:54.874Z,98684.98
2023-03-29T18:57:22.976Z,98678.80
2023-03-29T18:59:50.582Z,98679.86
2023-03-29T19:02:18.289Z,98685.61
2023-03-29T19:04:45.947Z,98691.71
2023-03-29T19:07:13.682Z,98691.55
2023-03-29T19:09:41.516Z,98683.29
2023-03-29T19:12:09.297Z,98680.80
2023-03-29T19:14:36.906Z,98680.17
2023-03-29T19:17:04.667Z,98677.48
2023-03-29T19:19:32.364Z,98678.86
2023-03-29T19:22:00.703Z,98674.45
2023-03-29T19:24:28.818Z,98675.63
2023-03-29T19:26:56.634Z,98680.05
2023-03-29T19:29:24.493Z,98687.88
2023-03-29T19:31:52.238Z,98695.32
2023-03-29T19:34:20.249Z,98689.96
2023-03-29T19:36:47.881Z,98697.25
2023-03-29T19:39:15.920Z,98697.29
2023-03-29T19:41:43.526Z,98704.41
2023-03-29T19:44:11.139Z,98704.77
2023-03-29T19:46:38.778Z,98700.80
2023-03-29T19:49:06.720Z,98699.35
2023-03-29T19:51:34.335Z,98693.02
2023-03-29T19:54:01.943Z,98692.42
2023-03-29T19:56:29.562Z,98695.36
2023-03-29T19:58:57.319Z,98700.13
2023-03-29T20:01:24.939Z,98696.47
2023-03-29T20:03:53.463Z,98697.01
2023-03-29T20:06:21.522Z,98691.48
2023-03-29T20:08:49.398Z,98689.66
2023-03-29T20:11:17.002Z,98686.13
2023-03-29T20:13:45.371Z,98685.30
2023-03-29T20:16:16.040Z,98686.31
2023-03-29T20:18:44.582Z,98685.43
2023-03-29T20:21:14.238Z,98681.70
2023-03-29T20:23:42.211Z,98679.68
2023-03-29T20:26:09.976Z,98684.23
2023-03-29T20:28:37.675Z,98683.21
2023-03-29T20:31:07.726Z,98680.34
2023-03-29T20:33:36.025Z,98672.59
2023-03-29T20:36:03.966Z,98669.73
2023-03-29T20:38:32.447Z,98671.10
2023-03-29T20:41:00.050Z,98671.44
2023-03-29T20:43:27.672Z,98667.41
2023-03-29T20:45:55.588Z,98670.79
2023-03-29T20:48:23.744Z,98670.79
2023-03-29T20:50:51.840Z,98663.71
2023-03-29T20:53:19.562Z,98660.52
2023-03-29T20:55:47.131Z,98656.98
2023-03-29T20:58:15.386Z,98653.13
2023-03-29T21:00:43.866Z,98650.92
2023-03-29T21:03:11.675Z,98653.77
2023-03-29T21:05:39.356Z,98645.33
2023-03-29T21:08:06.962Z,98645.14
2023-03-29T21:10:34.554Z,98647.33
2023-03-29T21:13:02.353Z,98646.48
2023-03-29T21:15:30.526Z,98644.15
2023-03-29T21:17:58.846Z,98643.29
2023-03-29T21:20:26.812Z,98643.95
2023-03-29T21:22:54.495Z,98637.89
2023-03-29T21:25:22.151Z,98632.82
2023-03-29T21:27:49.785Z,98631.65
2023-03-29T21:30:17.399Z,98633.02
2023-03-29T21:32:45.157Z,98630.35
2023-03-29T21:35:13.143Z,98631.36
2023-03-29T21:37:40.795Z,98636.77
2023-03-29T21:40:08.843Z,98637.09
2023-03-29T21:42:36.772Z,98634.52
2023-03-29T21:45:04.855Z,98635.99
2023-03-29T21:47:32.527Z,98632.27
2023-03-29T21:50:00.165Z,98632.53
2023-03-29T21:52:27.821Z,98635.02
2023-03-29T21:54:55.431Z,98637.98
2023-03-29T21:57:23.392Z,98631.84
2023-03-29T21:59:51.000Z,98626.34
2023-03-29T22:02:18.797Z,98625.77
2023-03-29T22:04:46.469Z,98619.98
2023-03-29T22:07:14.172Z,98614.67
2023-03-29T22:09:41.743Z,98616.61
2023-03-29T22:12:09.818Z,98616.87
2023-03-29T22:14:37.464Z,98615.61
2023-03-29T22:17:05.879Z,98614.84
2023-03-29T22:19:34.394Z,98612.90
2023-03-29T22:22:02.169Z,98614.33
2023-03-29T22:24:29.801Z,98609.70
2023-03-29T22:26:57.559Z,98606.58
2023-03-29T22:29:25.163Z,98602.64
2023-03-29T22:31:52.864Z,98604.91
2023-03-29T22:34:20.847Z,98603.99
2023-03-29T22:36:48.446Z,98602.90
2023-03-29T22:39:16.068Z,98603.02
2023-03-29T22:41:43.721Z,98604.84
2023-03-29T22:44:11.508Z,98599.04
2023-03-29T22:46:39.135Z,98602.09
2023-03-29T22:49:06.951Z,98596.34
2023-03-29T22:51:34.543Z,98593.65
2023-03-29T22:54:02.195Z,98590.76
2023-03-29T22:56:29.886Z,98592.27
2023-03-29T22:58:57.652Z,98589.88
2023-03-29T23:01:25.258Z,98581.92
2023-03-29T23:03:52.897Z,98584.79
2023-03-29T23:06:20.576Z,98584.46
2023-03-29T23:08:48.406Z,98584.14
2023-03-29T23:11:16.059Z,98581.10
2023-03-29T23:13:43.692Z,98581.28
2023-03-29T23:16:11.342Z,98580.58
2023-03-29T23:18:38.934Z,98577.19
2023-03-29T23:21:06.859Z,98582.91
2023-03-29T23:23:35.377Z,98582.23
2023-03-29T23:26:03.198Z,98579.68
2023-03-29T23:28:31.132Z,98576.63
2023-03-29T23:31:11.241Z,98575.63
2023-03-29T23:33:41.194Z,98577.14
2023-03-29T23:36:11.622Z,98573.57
2023-03-29T23:38:39.538Z,98567.80
2023-03-29T23:41:09.436Z,98569.80
2023-03-29T23:43:39.316Z,98565.84
2023-03-29T23:46:12.931Z,98567.49
2023-03-29T23:48:44.027Z,98564.89
2023-03-29T23:51:11.732Z,98559.63
2023-03-29T23:53:39.407Z,98561.27
2023-03-29T23:56:07.473Z,98559.72
2023-03-29T23:58:37.534Z,98560.20
